Observation data for Brownfield on 06/20/2019      Previous  Date  Next       Current Mesonet Observations  Soil Data  Daily Summary Page  Observations in Plain Language
KBWS 200500Z 12007KT 23/17 A2986 RMK A01 T02320170  RH  069%=      5-min Rain = 0
KBWS 200505Z 12007KT 23/17 A2986 RMK A01 T02300170  RH  071%=      5-min Rain = 0
KBWS 200510Z 12007KT 23/17 A2986 RMK A01 T02290171  RH  072%=      5-min Rain = 0
KBWS 200515Z 12006KT 23/17 A2986 RMK A01 T02290171  RH  072%=      5-min Rain = 0
KBWS 200520Z 12007KT 23/17 A2985 RMK A01 T02270171  RH  072%=      5-min Rain = 0
KBWS 200525Z 12006KT 23/17 A2986 RMK A01 T02260171  RH  073%=      5-min Rain = 0
KBWS 200530Z 12006KT 23/17 A2986 RMK A01 T02250172  RH  074%=      5-min Rain = 0
KBWS 200535Z 12005KT 22/17 A2986 RMK A01 T02230172  RH  075%=      5-min Rain = 0
KBWS 200540Z 11005KT 22/17 A2986 RMK A01 T02230173  RH  075%=      5-min Rain = 0
KBWS 200545Z 11005KT 22/17 A2986 RMK A01 T02220173  RH  076%=      5-min Rain = 0
KBWS 200550Z 11006KT 22/17 A2986 RMK A01 T02190173  RH  077%=      5-min Rain = 0
KBWS 200555Z 11005KT 22/17 A2987 RMK A01 T02190173  RH  077%=      5-min Rain = 0
KBWS 200600Z 12005KT 22/17 A2987 RMK A01 T02220172  RH  075%=      5-min Rain = 0
KBWS 200605Z 13005KT 22/17 A2987 RMK A01 T02230172  RH  075%=      5-min Rain = 0
KBWS 200610Z 11005KT 22/17 A2987 RMK A01 T02210173  RH  076%=      5-min Rain = 0
KBWS 200615Z 11006KT 22/17 A2987 RMK A01 T02200173  RH  077%=      5-min Rain = 0
KBWS 200620Z 10005KT 22/17 A2987 RMK A01 T02190173  RH  077%=      5-min Rain = 0
KBWS 200625Z 10003KT 22/17 A2987 RMK A01 T02190171  RH  076%=      5-min Rain = 0
KBWS 200630Z 08003KT 22/17 A2987 RMK A01 T02180171  RH  077%=      5-min Rain = 0
KBWS 200635Z 08005KT 22/17 A2987 RMK A01 T02160173  RH  078%=      5-min Rain = 0
KBWS 200640Z 11005KT 22/17 A2986 RMK A01 T02170171  RH  077%=      5-min Rain = 0
KBWS 200645Z 13006KT 22/17 A2986 RMK A01 T02160171  RH  078%=      5-min Rain = 0
KBWS 200650Z 11005KT 21/17 A2986 RMK A01 T02140171  RH  079%=      5-min Rain = 0
KBWS 200655Z 10008KT 21/17 A2986 RMK A01 T02120172  RH  079%=      5-min Rain = 0
KBWS 200700Z 13010KT 21/17 A2986 RMK A01 T02130171  RH  079%=      5-min Rain = 0
KBWS 200705Z 14010KT 22/17 A2986 RMK A01 T02180169  RH  076%=      5-min Rain = 0
KBWS 200710Z 14008KT 22/17 A2986 RMK A01 T02210167  RH  073%=      5-min Rain = 0
KBWS 200715Z 13008KT 22/17 A2986 RMK A01 T02150168  RH  077%=      5-min Rain = 0
KBWS 200720Z 12008KT 21/17 A2986 RMK A01 T02100169  RH  079%=      5-min Rain = 0
KBWS 200725Z 12008KT 21/17 A2986 RMK A01 T02090169  RH  080%=      5-min Rain = 0
KBWS 200730Z 13009KT 21/17 A2986 RMK A01 T02090169  RH  080%=      5-min Rain = 0
KBWS 200735Z 14007KT 21/17 A2985 RMK A01 T02100168  RH  079%=      5-min Rain = 0
KBWS 200740Z 14008KT 21/17 A2985 RMK A01 T02100167  RH  078%=      5-min Rain = 0
KBWS 200745Z 14008KT 21/17 A2985 RMK A01 T02110166  RH  078%=      5-min Rain = 0
KBWS 200750Z 14006KT 21/17 A2985 RMK A01 T02090166  RH  078%=      5-min Rain = 0
KBWS 200755Z 14005KT 21/17 A2984 RMK A01 T02050166  RH  080%=      5-min Rain = 0
KBWS 200800Z 13004KT 20/17 A2984 RMK A01 T02040166  RH  080%=      5-min Rain = 0
KBWS 200805Z 15002KT 20/17 A2984 RMK A01 T02020165  RH  081%=      5-min Rain = 0
KBWS 200810Z 16003KT 20/16 A2984 RMK A01 T02010164  RH  081%=      5-min Rain = 0
KBWS 200815Z 16004KT 20/16 A2983 RMK A01 T01990164  RH  082%=      5-min Rain = 0
KBWS 200820Z 16004KT 20/16 A2983 RMK A01 T01970164  RH  083%=      5-min Rain = 0
KBWS 200825Z 17003KT 20/17 A2983 RMK A01 T01970165  RH  084%=      5-min Rain = 0
KBWS 200830Z 18003KT 20/17 A2983 RMK A01 T01990166  RH  083%=      5-min Rain = 0
KBWS 200835Z 17005KT 20/16 A2983 RMK A01 T01980164  RH  083%=      5-min Rain = 0
KBWS 200840Z 17006KT 20/16 A2983 RMK A01 T01950163  RH  084%=      5-min Rain = 0
KBWS 200845Z 16005KT 19/16 A2983 RMK A01 T01930163  RH  085%=      5-min Rain = 0
KBWS 200850Z 16005KT 19/16 A2983 RMK A01 T01920163  RH  085%=      5-min Rain = 0
KBWS 200855Z 16004KT 19/16 A2983 RMK A01 T01890162  RH  086%=      5-min Rain = 0
KBWS 200900Z 17005KT 19/16 A2983 RMK A01 T01900163  RH  086%=      5-min Rain = 0
KBWS 200905Z 17005KT 19/16 A2983 RMK A01 T01910163  RH  086%=      5-min Rain = 0
KBWS 200910Z 17004KT 19/16 A2983 RMK A01 T01910163  RH  086%=      5-min Rain = 0
KBWS 200915Z 17003KT 19/16 A2983 RMK A01 T01900162  RH  086%=      5-min Rain = 0
KBWS 200920Z 17004KT 19/16 A2983 RMK A01 T01890163  RH  087%=      5-min Rain = 0
KBWS 200925Z 18004KT 19/16 A2983 RMK A01 T01900164  RH  087%=      5-min Rain = 0
KBWS 200930Z 19002KT 19/16 A2983 RMK A01 T01900164  RH  087%=      5-min Rain = 0
KBWS 200935Z 19000KT 19/16 A2983 RMK A01 T01870162  RH  087%=      5-min Rain = 0
KBWS 200940Z 00000KT 19/16 A2983 RMK A01 T01870163  RH  088%=      5-min Rain = 0
KBWS 200945Z 00000KT 19/16 A2983 RMK A01 T01870164  RH  089%=      5-min Rain = 0
KBWS 200950Z 22002KT 19/16 A2983 RMK A01 T01870163  RH  088%=      5-min Rain = 0
KBWS 200955Z 22004KT 19/16 A2983 RMK A01 T01860162  RH  088%=      5-min Rain = 0
KBWS 201000Z 22003KT 18/16 A2983 RMK A01 T01830158  RH  087%=      5-min Rain = 0
KBWS 201005Z 20002KT 18/16 A2983 RMK A01 T01770156  RH  089%=      5-min Rain = 0
KBWS 201010Z 16002KT 18/16 A2983 RMK A01 T01800160  RH  090%=      5-min Rain = 0
KBWS 201015Z 18004KT 18/16 A2983 RMK A01 T01800160  RH  090%=      5-min Rain = 0
KBWS 201020Z 19005KT 18/16 A2983 RMK A01 T01820159  RH  088%=      5-min Rain = 0
KBWS 201025Z 20005KT 18/16 A2983 RMK A01 T01840155  RH  085%=      5-min Rain = 0
KBWS 201030Z 21005KT 18/15 A2983 RMK A01 T01840154  RH  084%=      5-min Rain = 0
KBWS 201035Z 21005KT 18/15 A2983 RMK A01 T01830152  RH  084%=      5-min Rain = 0
KBWS 201040Z 21005KT 18/15 A2983 RMK A01 T01830151  RH  083%=      5-min Rain = 0
KBWS 201045Z 22005KT 18/15 A2983 RMK A01 T01810149  RH  083%=      5-min Rain = 0
KBWS 201050Z 22005KT 18/15 A2983 RMK A01 T01800148  RH  083%=      5-min Rain = 0
KBWS 201055Z 22005KT 18/15 A2983 RMK A01 T01770147  RH  084%=      5-min Rain = 0
KBWS 201100Z 22005KT 18/15 A2983 RMK A01 T01770147  RH  085%=      5-min Rain = 0
KBWS 201105Z 23004KT 18/15 A2983 RMK A01 T01760148  RH  085%=      5-min Rain = 0
KBWS 201110Z 23004KT 18/15 A2983 RMK A01 T01760146  RH  085%=      5-min Rain = 0
KBWS 201115Z 23004KT 18/15 A2983 RMK A01 T01760146  RH  084%=      5-min Rain = 0
KBWS 201120Z 23005KT 18/15 A2983 RMK A01 T01790148  RH  084%=      5-min Rain = 0
KBWS 201125Z 23005KT 18/15 A2983 RMK A01 T01790148  RH  084%=      5-min Rain = 0
KBWS 201130Z 22005KT 18/15 A2983 RMK A01 T01770148  RH  085%=      5-min Rain = 0
KBWS 201135Z 23004KT 18/15 A2983 RMK A01 T01750147  RH  086%=      5-min Rain = 0
KBWS 201140Z 23003KT 17/15 A2983 RMK A01 T01730148  RH  087%=      5-min Rain = 0
KBWS 201145Z 23003KT 17/15 A2984 RMK A01 T01730148  RH  087%=      5-min Rain = 0
KBWS 201150Z 24003KT 17/15 A2984 RMK A01 T01730148  RH  087%=      5-min Rain = 0
KBWS 201155Z 24004KT 17/15 A2984 RMK A01 T01740146  RH  085%=      5-min Rain = 0
KBWS 201200Z 25004KT 17/15 A2984 RMK A01 T01740146  RH  085%=      5-min Rain = 0
KBWS 201205Z 25005KT 17/15 A2984 RMK A01 T01740146  RH  086%=      5-min Rain = 0
KBWS 201210Z 21002KT 18/15 A2984 RMK A01 T01760149  RH  086%=      5-min Rain = 0
KBWS 201215Z 14003KT 17/15 A2985 RMK A01 T01740149  RH  087%=      5-min Rain = 0
KBWS 201220Z 19003KT 18/15 A2985 RMK A01 T01750150  RH  087%=      5-min Rain = 0
KBWS 201225Z 22004KT 18/15 A2985 RMK A01 T01780151  RH  086%=      5-min Rain = 0
KBWS 201230Z 22004KT 18/15 A2985 RMK A01 T01820152  RH  085%=      5-min Rain = 0
KBWS 201235Z 23005KT 19/15 A2985 RMK A01 T01860154  RH  083%=      5-min Rain = 0
KBWS 201240Z 24005KT 19/15 A2985 RMK A01 T01900154  RH  081%=      5-min Rain = 0
KBWS 201245Z 25006KT 19/16 A2985 RMK A01 T01930156  RH  081%=      5-min Rain = 0
KBWS 201250Z 25006KT 20/15 A2985 RMK A01 T01960152  RH  078%=      5-min Rain = 0
KBWS 201255Z 26006KT 20/15 A2985 RMK A01 T02000146  RH  072%=      5-min Rain = 0
KBWS 201300Z 26007KT 21/13 A2985 RMK A01 T02080131  RH  063%=      5-min Rain = 0
KBWS 201305Z 26005KT 21/14 A2985 RMK A01 T02120135  RH  063%=      5-min Rain = 0
KBWS 201310Z 24004KT 22/14 A2985 RMK A01 T02150136  RH  062%=      5-min Rain = 0
KBWS 201315Z 22005KT 22/14 A2986 RMK A01 T02170136  RH  061%=      5-min Rain = 0
KBWS 201320Z 22006KT 22/14 A2986 RMK A01 T02200139  RH  061%=      5-min Rain = 0
KBWS 201325Z 23007KT 22/13 A2986 RMK A01 T02220134  RH  059%=      5-min Rain = 0
KBWS 201330Z 23007KT 23/14 A2986 RMK A01 T02250138  RH  059%=      5-min Rain = 0
KBWS 201335Z 21010KT 23/13 A2987 RMK A01 T02270128  RH  054%=      5-min Rain = 0
KBWS 201340Z 23008KT 23/12 A2986 RMK A01 T02320115  RH  049%=      5-min Rain = 0
KBWS 201350Z 24008KT 24/11 A2986 RMK A01 T02400105  RH  043%=      5-min Rain = 0
KBWS 201355Z 22008KT 25/10 A2986 RMK A01 T02450102  RH  041%=      5-min Rain = 0
KBWS 201400Z 24010KT 25/10 A2986 RMK A01 T02470100  RH  040%=      5-min Rain = 0
KBWS 201405Z 24008KT 25/10 A2986 RMK A01 T02510097  RH  038%=      5-min Rain = 0
KBWS 201410Z 23008KT 26/09 A2987 RMK A01 T02560091  RH  036%=      5-min Rain = 0
KBWS 201415Z 22008KT 26/09 A2987 RMK A01 T02600092  RH  035%=      5-min Rain = 0
KBWS 201420Z 22009KT 26/09 A2987 RMK A01 T02620087  RH  034%=      5-min Rain = 0
KBWS 201425Z 23008KT 26/08 A2987 RMK A01 T02630078  RH  031%=      5-min Rain = 0
KBWS 201430Z 22009KT 27/08 A2987 RMK A01 T02660075  RH  030%=      5-min Rain = 0
KBWS 201435Z 22009KT 27/07 A2987 RMK A01 T02680067  RH  028%=      5-min Rain = 0
KBWS 201440Z 22009KT 27/06 A2987 RMK A01 T02700064  RH  027%=      5-min Rain = 0
KBWS 201445Z 23009KT 27/08 A2988 RMK A01 T02700076  RH  030%=      5-min Rain = 0
KBWS 201450Z 23008KT 27/08 A2988 RMK A01 T02730075  RH  029%=      5-min Rain = 0
KBWS 201455Z 24008KT 28/07 A2989 RMK A01 T02770065  RH  026%=      5-min Rain = 0
KBWS 201500Z 24008KT 28/08 A2988 RMK A01 T02750075  RH  029%=      5-min Rain = 0
KBWS 201505Z 24008KT 28/08 A2989 RMK A01 T02790081  RH  029%=      5-min Rain = 0
KBWS 201510Z 24008KT 28/08 A2988 RMK A01 T02790081  RH  029%=      5-min Rain = 0
KBWS 201515Z 24007KT 28/08 A2988 RMK A01 T02810084  RH  029%=      5-min Rain = 0
KBWS 201520Z 24007KT 28/08 A2988 RMK A01 T02810084  RH  029%=      5-min Rain = 0
KBWS 201525Z 24007KT 28/08 A2988 RMK A01 T02840084  RH  029%=      5-min Rain = 0
KBWS 201530Z 21007KT 29/09 A2987 RMK A01 T02870085  RH  029%=      5-min Rain = 0
KBWS 201535Z 19007KT 29/08 A2987 RMK A01 T02910084  RH  028%=      5-min Rain = 0
KBWS 201540Z 21007KT 30/08 A2987 RMK A01 T02960080  RH  026%=      5-min Rain = 0
KBWS 201545Z 21007KT 30/08 A2987 RMK A01 T02980079  RH  026%=      5-min Rain = 0
KBWS 201550Z 20007KT 30/07 A2987 RMK A01 T03020072  RH  024%=      5-min Rain = 0
KBWS 201555Z 21007KT 31/07 A2987 RMK A01 T03080072  RH  023%=      5-min Rain = 0
KBWS 201600Z 21009KT 31/07 A2987 RMK A01 T03060071  RH  023%=      5-min Rain = 0
KBWS 201605Z 21009KT 31/07 A2987 RMK A01 T03060070  RH  023%=      5-min Rain = 0
KBWS 201610Z 21008KT 31/07 A2987 RMK A01 T03070072  RH  023%=      5-min Rain = 0
KBWS 201615Z 21009KT 31/07 A2987 RMK A01 T03090071  RH  023%=      5-min Rain = 0
KBWS 201620Z 22009KT 31/07 A2987 RMK A01 T03100067  RH  022%=      5-min Rain = 0
KBWS 201625Z 21009KT 32/07 A2987 RMK A01 T03150068  RH  022%=      5-min Rain = 0
KBWS 201630Z 22009KT 32/06 A2987 RMK A01 T03150061  RH  021%=      5-min Rain = 0
KBWS 201635Z 21009KT 32/06 A2987 RMK A01 T03180060  RH  020%=      5-min Rain = 0
KBWS 201640Z 21009KT 32/06 A2987 RMK A01 T03230059  RH  019%=      5-min Rain = 0
KBWS 201645Z 21009KT 32/06 A2987 RMK A01 T03210055  RH  019%=      5-min Rain = 0
KBWS 201650Z 21008KT 33/05 A2986 RMK A01 T03260054  RH  019%=      5-min Rain = 0
KBWS 201655Z 20008KT 33/05 A2986 RMK A01 T03260054  RH  018%=      5-min Rain = 0
KBWS 201700Z 21007KT 33/05 A2986 RMK A01 T03280050  RH  018%=      5-min Rain = 0
KBWS 201705Z 21009KT 33/05 A2986 RMK A01 T03310052  RH  018%=      5-min Rain = 0
KBWS 201710Z 21008KT 33/05 A2986 RMK A01 T03330047  RH  017%=      5-min Rain = 0
KBWS 201715Z 22007G12KT 34/05 A2986 RMK A01 T03390052  RH  017%=      5-min Rain = 0
KBWS 201720Z 22008KT 34/05 A2986 RMK A01 T03430052  RH  017%=      5-min Rain = 0
KBWS 201725Z 22008KT 34/05 A2986 RMK A01 T03410046  RH  016%=      5-min Rain = 0
KBWS 201730Z 21009KT 34/05 A2986 RMK A01 T03440046  RH  016%=      5-min Rain = 0
KBWS 201735Z 20009KT 35/05 A2986 RMK A01 T03480045  RH  015%=      5-min Rain = 0
KBWS 201740Z 22009KT 35/04 A2986 RMK A01 T03480043  RH  015%=      5-min Rain = 0
KBWS 201745Z 20008KT 35/04 A2986 RMK A01 T03510035  RH  014%=      5-min Rain = 0
KBWS 201750Z 21010KT 35/04 A2986 RMK A01 T03520037  RH  014%=      5-min Rain = 0
KBWS 201755Z 21009KT 35/04 A2986 RMK A01 T03510039  RH  014%=      5-min Rain = 0
KBWS 201800Z 21010KT 36/03 A2986 RMK A01 T03560032  RH  013%=      5-min Rain = 0
KBWS 201805Z 22010KT 35/02 A2986 RMK A01 T03540020  RH  012%=      5-min Rain = 0
KBWS 201810Z 22010KT 36/02 A2986 RMK A01 T03570019  RH  012%=      5-min Rain = 0
KBWS 201815Z 21011KT 36/02 A2986 RMK A01 T03590021  RH  012%=      5-min Rain = 0
KBWS 201820Z 22011G16KT 36/02 A2986 RMK A01 T03610022  RH  012%=      5-min Rain = 0
KBWS 201825Z 20011G16KT 36/03 A2986 RMK A01 T03640025  RH  012%=      5-min Rain = 0
KBWS 201830Z 20011KT 37/02 A2986 RMK A01 T03680020  RH  012%=      5-min Rain = 0
KBWS 201835Z 21011G16KT 37/02 A2985 RMK A01 T03650015  RH  011%=      5-min Rain = 0
KBWS 201840Z 20012KT 36/01 A2985 RMK A01 T03630012  RH  011%=      5-min Rain = 0
KBWS 201845Z 21012G17KT 37/01 A2985 RMK A01 T03710012  RH  011%=      5-min Rain = 0
KBWS 201850Z 21013G22KT 37/01 A2985 RMK A01 T03740012  RH  011%=      5-min Rain = 0
KBWS 201855Z 21014G19KT 37/01 A2985 RMK A01 T03730009  RH  010%=      5-min Rain = 0
KBWS 201900Z 22014G20KT 37/01 A2984 RMK A01 T03730009  RH  010%=      5-min Rain = 0
KBWS 201905Z 21013G18KT 37/01 A2984 RMK A01 T03730008  RH  010%=      5-min Rain = 0
KBWS 201910Z 21014KT 38/01 A2984 RMK A01 T03760006  RH  010%=      5-min Rain = 0
KBWS 201915Z 21015KT 38/00 A2984 RMK A01 T03780002  RH  010%=      5-min Rain = 0
KBWS 201920Z 21014KT 38/M00 A2984 RMK A01 T03791003  RH  009%=      5-min Rain = 0
KBWS 201925Z 21014KT 38/01 A2984 RMK A01 T03830007  RH  010%=      5-min Rain = 0
KBWS 201930Z 22013G18KT 39/00 A2984 RMK A01 T03850002  RH  009%=      5-min Rain = 0
KBWS 201935Z 21015G22KT 39/M00 A2984 RMK A01 T03851001  RH  009%=      5-min Rain = 0
KBWS 201940Z 20015G20KT 38/M01 A2984 RMK A01 T03841007  RH  009%=      5-min Rain = 0
KBWS 201945Z 20015G22KT 38/M01 A2983 RMK A01 T03841011  RH  008%=      5-min Rain = 0
KBWS 201950Z 21014G21KT 39/M01 A2983 RMK A01 T03861011  RH  008%=      5-min Rain = 0
KBWS 201955Z 21011G16KT 39/M02 A2983 RMK A01 T03851015  RH  008%=      5-min Rain = 0
KBWS 202000Z 22016G22KT 39/M02 A2983 RMK A01 T03851016  RH  008%=      5-min Rain = 0
KBWS 202005Z 21014G22KT 39/M02 A2983 RMK A01 T03861016  RH  008%=      5-min Rain = 0
KBWS 202010Z 21012G19KT 39/M01 A2982 RMK A01 T03881014  RH  008%=      5-min Rain = 0
KBWS 202015Z 20012KT 39/M02 A2982 RMK A01 T03881016  RH  008%=      5-min Rain = 0
KBWS 202020Z 22015G20KT 39/M01 A2982 RMK A01 T03861014  RH  008%=      5-min Rain = 0
KBWS 202025Z 22012G18KT 39/M02 A2982 RMK A01 T03871019  RH  008%=      5-min Rain = 0
KBWS 202030Z 19010KT 39/M03 A2981 RMK A01 T03881025  RH  007%=      5-min Rain = 0
KBWS 202035Z 21009G16KT 38/M02 A2981 RMK A01 T03821017  RH  008%=      5-min Rain = 0
KBWS 202040Z 23016KT 39/M02 A2981 RMK A01 T03891020  RH  008%=      5-min Rain = 0
KBWS 202045Z 22010G17KT 39/M02 A2981 RMK A01 T03871024  RH  008%=      5-min Rain = 0
KBWS 202050Z 22008KT 39/M02 A2981 RMK A01 T03871023  RH  008%=      5-min Rain = 0
KBWS 202055Z 24009G14KT 39/M01 A2981 RMK A01 T03901014  RH  008%=      5-min Rain = 0
KBWS 202100Z 23011G18KT 39/M02 A2981 RMK A01 T03921019  RH  008%=      5-min Rain = 0
KBWS 202105Z 22014G21KT 39/M03 A298 RMK A01 T03871025  RH  008%=      5-min Rain = 0
KBWS 202110Z 22013G19KT 38/M02 A298 RMK A01 T03831023  RH  008%=      5-min Rain = 0
KBWS 202115Z 23014G19KT 39/M02 A298 RMK A01 T03891020  RH  008%=      5-min Rain = 0
KBWS 202120Z 20013G21KT 38/M03 A298 RMK A01 T03801026  RH  008%=      5-min Rain = 0
KBWS 202125Z 21012G17KT 39/M02 A2979 RMK A01 T03891021  RH  008%=      5-min Rain = 0
KBWS 202130Z 22014G19KT 39/M02 A2979 RMK A01 T03911022  RH  007%=      5-min Rain = 0
KBWS 202135Z 22014G20KT 39/M03 A2979 RMK A01 T03881028  RH  007%=      5-min Rain = 0
KBWS 202140Z 22010KT 39/M03 A2979 RMK A01 T03881026  RH  007%=      5-min Rain = 0
KBWS 202145Z 21009G15KT 39/M02 A2979 RMK A01 T03891022  RH  008%=      5-min Rain = 0
KBWS 202150Z 23013G19KT 39/M02 A2979 RMK A01 T03941017  RH  008%=      5-min Rain = 0
KBWS 202155Z 22014G22KT 39/M02 A2979 RMK A01 T03921022  RH  007%=      5-min Rain = 0
KBWS 202200Z 20014G19KT 39/M02 A2979 RMK A01 T03911024  RH  007%=      5-min Rain = 0
KBWS 202205Z 21007G12KT 38/M03 A2979 RMK A01 T03761028  RH  008%=      5-min Rain = 0
KBWS 202210Z 20010KT 37/M03 A2979 RMK A01 T03711026  RH  008%=      5-min Rain = 0
KBWS 202215Z 21008G13KT 37/M02 A2979 RMK A01 T03721022  RH  008%=      5-min Rain = 0
KBWS 202220Z 20013G19KT 39/M02 A2979 RMK A01 T03861017  RH  008%=      5-min Rain = 0
KBWS 202225Z 20014KT 39/M02 A2979 RMK A01 T03871021  RH  008%=      5-min Rain = 0
KBWS 202230Z 21015G21KT 38/M02 A2978 RMK A01 T03841022  RH  008%=      5-min Rain = 0
KBWS 202235Z 20016G22KT 39/M02 A2978 RMK A01 T03861019  RH  008%=      5-min Rain = 0
KBWS 202240Z 20013G18KT 38/M02 A2978 RMK A01 T03811023  RH  008%=      5-min Rain = 0
KBWS 202245Z 19010KT 38/M02 A2978 RMK A01 T03791023  RH  008%=      5-min Rain = 0
KBWS 202250Z 19013KT 37/M02 A2978 RMK A01 T03741022  RH  008%=      5-min Rain = 0
KBWS 202255Z 19012KT 37/M02 A2978 RMK A01 T03681020  RH  009%=      5-min Rain = 0
KBWS 202300Z 20011KT 37/M01 A2978 RMK A01 T03691008  RH  009%=      5-min Rain = 0
KBWS 202305Z 20013G21KT 38/M02 A2977 RMK A01 T03761017  RH  008%=      5-min Rain = 0
KBWS 202310Z 20016G21KT 37/M03 A2977 RMK A01 T03731026  RH  008%=      5-min Rain = 0
KBWS 202315Z 21012G18KT 38/M02 A2977 RMK A01 T03801024  RH  008%=      5-min Rain = 0
KBWS 202320Z 21010KT 38/M02 A2977 RMK A01 T03811019  RH  008%=      5-min Rain = 0
KBWS 202325Z 20013KT 37/M03 A2977 RMK A01 T03721025  RH  008%=      5-min Rain = 0
KBWS 202330Z 21013KT 38/M02 A2977 RMK A01 T03751020  RH  008%=      5-min Rain = 0
KBWS 202335Z 22011KT 37/M02 A2977 RMK A01 T03721019  RH  008%=      5-min Rain = 0
KBWS 202340Z 20009KT 38/M01 A2976 RMK A01 T03761013  RH  009%=      5-min Rain = 0
KBWS 202345Z 20012G17KT 38/M02 A2976 RMK A01 T03781020  RH  008%=      5-min Rain = 0
KBWS 202350Z 20015KT 38/M03 A2976 RMK A01 T03791026  RH  008%=      5-min Rain = 0
KBWS 202355Z 20015KT 38/M03 A2976 RMK A01 T03801030  RH  007%=      5-min Rain = 0
KBWS 210000Z 18012KT 38/M03 A2976 RMK A01 T03801033  RH  007%=      5-min Rain = 0
KBWS 210005Z 22014G21KT 38/M02 A2975 RMK A01 T03801023  RH  008%=      5-min Rain = 0
KBWS 210010Z 24012G19KT 38/M02 A2976 RMK A01 T03781019  RH  008%=      5-min Rain = 0
KBWS 210015Z 24012G17KT 38/M03 A2976 RMK A01 T03751028  RH  008%=      5-min Rain = 0
KBWS 210020Z 24012KT 37/M03 A2976 RMK A01 T03741031  RH  008%=      5-min Rain = 0
KBWS 210025Z 25011KT 37/M03 A2976 RMK A01 T03731027  RH  008%=      5-min Rain = 0
KBWS 210030Z 24010KT 37/M02 A2976 RMK A01 T03711020  RH  008%=      5-min Rain = 0
KBWS 210035Z 25010G15KT 37/M02 A2976 RMK A01 T03701015  RH  009%=      5-min Rain = 0
KBWS 210040Z 25010KT 37/M02 A2976 RMK A01 T03681015  RH  009%=      5-min Rain = 0
KBWS 210045Z 25009KT 37/M01 A2976 RMK A01 T03661010  RH  009%=      5-min Rain = 0
KBWS 210050Z 25008KT 36/M00 A2976 RMK A01 T03631004  RH  010%=      5-min Rain = 0
KBWS 210055Z 25007KT 36/M00 A2976 RMK A01 T03611002  RH  010%=      5-min Rain = 0
KBWS 210100Z 25007KT 36/00 A2976 RMK A01 T03580003  RH  011%=      5-min Rain = 0
KBWS 210105Z 24007KT 36/00 A2976 RMK A01 T03550000  RH  011%=      5-min Rain = 0
KBWS 210110Z 24007KT 35/01 A2976 RMK A01 T03520009  RH  012%=      5-min Rain = 0
KBWS 210115Z 22006KT 35/02 A2976 RMK A01 T03450020  RH  013%=      5-min Rain = 0
KBWS 210120Z 22007KT 34/03 A2976 RMK A01 T03370028  RH  014%=      5-min Rain = 0
KBWS 210125Z 22007KT 33/03 A2976 RMK A01 T03340034  RH  015%=      5-min Rain = 0
KBWS 210130Z 22007KT 33/03 A2976 RMK A01 T03300030  RH  015%=      5-min Rain = 0
KBWS 210135Z 22007KT 33/03 A2976 RMK A01 T03280029  RH  015%=      5-min Rain = 0
KBWS 210140Z 22007KT 32/03 A2976 RMK A01 T03210031  RH  016%=      5-min Rain = 0
KBWS 210145Z 22006KT 32/04 A2976 RMK A01 T03160036  RH  017%=      5-min Rain = 0
KBWS 210150Z 21007KT 31/04 A2977 RMK A01 T03110036  RH  018%=      5-min Rain = 0
KBWS 210155Z 21008KT 31/03 A2977 RMK A01 T03080031  RH  017%=      5-min Rain = 0
KBWS 210200Z 21008KT 31/02 A2977 RMK A01 T03060022  RH  016%=      5-min Rain = 0
KBWS 210205Z 21009KT 30/02 A2977 RMK A01 T03040017  RH  016%=      5-min Rain = 0
KBWS 210210Z 21010KT 30/01 A2977 RMK A01 T03020013  RH  016%=      5-min Rain = 0
KBWS 210215Z 21010KT 30/01 A2977 RMK A01 T03000009  RH  016%=      5-min Rain = 0
KBWS 210220Z 21010KT 30/00 A2977 RMK A01 T03000004  RH  015%=      5-min Rain = 0
KBWS 210225Z 21010KT 30/00 A2977 RMK A01 T03000000  RH  015%=      5-min Rain = 0
KBWS 210230Z 21010KT 30/M00 A2978 RMK A01 T02981001  RH  015%=      5-min Rain = 0
KBWS 210235Z 21011KT 30/M01 A2978 RMK A01 T02991007  RH  014%=      5-min Rain = 0
KBWS 210240Z 21012KT 30/M01 A2978 RMK A01 T03001011  RH  013%=      5-min Rain = 0
KBWS 210245Z 21011KT 30/M01 A2978 RMK A01 T02981010  RH  014%=      5-min Rain = 0
KBWS 210250Z 21011KT 29/M01 A2978 RMK A01 T02941007  RH  014%=      5-min Rain = 0
KBWS 210255Z 21011KT 29/M01 A2978 RMK A01 T02921006  RH  015%=      5-min Rain = 0
KBWS 210300Z 22011KT 29/M01 A2978 RMK A01 T02891005  RH  015%=      5-min Rain = 0
KBWS 210305Z 22011KT 29/M01 A2978 RMK A01 T02881005  RH  015%=      5-min Rain = 0
KBWS 210310Z 22012KT 29/M01 A2978 RMK A01 T02891009  RH  015%=      5-min Rain = 0
KBWS 210315Z 22013KT 29/M02 A2979 RMK A01 T02931015  RH  014%=      5-min Rain = 0
KBWS 210320Z 22013KT 29/M02 A2979 RMK A01 T02941019  RH  013%=      5-min Rain = 0
KBWS 210325Z 22013KT 30/M02 A2979 RMK A01 T02951023  RH  013%=      5-min Rain = 0
KBWS 210330Z 22013KT 29/M02 A2979 RMK A01 T02941023  RH  013%=      5-min Rain = 0
KBWS 210335Z 22012KT 29/M02 A2979 RMK A01 T02911021  RH  013%=      5-min Rain = 0
KBWS 210340Z 22012KT 29/M02 A298 RMK A01 T02891019  RH  013%=      5-min Rain = 0
KBWS 210345Z 22012KT 29/M02 A298 RMK A01 T02871020  RH  014%=      5-min Rain = 0
KBWS 210350Z 22012KT 29/M02 A298 RMK A01 T02861020  RH  014%=      5-min Rain = 0
KBWS 210355Z 22012KT 29/M02 A298 RMK A01 T02851019  RH  014%=      5-min Rain = 0
KBWS 210400Z 22012KT 28/M02 A298 RMK A01 T02831019  RH  014%=      5-min Rain = 0
KBWS 210405Z 22010KT 28/M01 A298 RMK A01 T02791014  RH  015%=      5-min Rain = 0
KBWS 210410Z 23010KT 27/M01 A298 RMK A01 T02721008  RH  016%=      5-min Rain = 0
KBWS 210415Z 22010KT 27/M01 A298 RMK A01 T02701008  RH  016%=      5-min Rain = 0
KBWS 210420Z 23010KT 27/M01 A298 RMK A01 T02711011  RH  016%=      5-min Rain = 0
KBWS 210425Z 23011KT 27/M01 A298 RMK A01 T02721012  RH  016%=      5-min Rain = 0
KBWS 210430Z 23011KT 27/M01 A298 RMK A01 T02721014  RH  016%=      5-min Rain = 0
KBWS 210435Z 23011KT 27/M02 A298 RMK A01 T02721015  RH  015%=      5-min Rain = 0
KBWS 210440Z 23011KT 27/M02 A298 RMK A01 T02721017  RH  015%=      5-min Rain = 0
KBWS 210445Z 23011KT 27/M02 A298 RMK A01 T02701018  RH  015%=      5-min Rain = 0
KBWS 210450Z 23011KT 27/M02 A298 RMK A01 T02701019  RH  015%=      5-min Rain = 0
KBWS 210455Z 23011KT 27/M02 A298 RMK A01 T02681017  RH  015%=      5-min Rain = 0

Page generated in 0.0114 seconds.